createdAt,value
2023-05-04T00:00:00.646Z,7.85
2023-05-04T00:01:00.794Z,7.85
2023-05-04T00:02:00.613Z,7.85
2023-05-04T00:03:00.711Z,7.85
2023-05-04T00:04:00.959Z,7.94
2023-05-04T00:05:00.860Z,7.94
2023-05-04T00:06:00.812Z,7.94
2023-05-04T00:07:00.571Z,7.94
2023-05-04T00:08:00.671Z,7.94
2023-05-04T00:09:00.601Z,7.83
2023-05-04T00:10:00.622Z,7.83
2023-05-04T00:11:00.618Z,7.83
2023-05-04T00:12:00.612Z,7.83
2023-05-04T00:13:00.655Z,7.83
2023-05-04T00:14:00.653Z,7.83
2023-05-04T00:15:00.656Z,7.83
2023-05-04T00:16:00.736Z,7.83
2023-05-04T00:17:00.638Z,7.83
2023-05-04T00:18:00.778Z,7.83
2023-05-04T00:19:00.676Z,7.78
2023-05-04T00:20:00.629Z,7.78
2023-05-04T00:21:00.690Z,7.78
2023-05-04T00:22:00.717Z,7.78
2023-05-04T00:23:00.667Z,7.78
2023-05-04T00:24:00.661Z,7.77
2023-05-04T00:25:00.638Z,7.77
2023-05-04T00:26:00.645Z,7.77
2023-05-04T00:27:00.682Z,7.77
2023-05-04T00:28:00.643Z,7.77
2023-05-04T00:29:00.657Z,7.69
2023-05-04T00:30:00.623Z,7.69
2023-05-04T00:31:00.668Z,7.69
2023-05-04T00:32:00.748Z,7.69
2023-05-04T00:33:00.669Z,7.69
2023-05-04T00:34:00.651Z,7.68
2023-05-04T00:35:00.654Z,7.68
2023-05-04T00:36:02.815Z,7.68
2023-05-04T00:37:00.642Z,7.68
2023-05-04T00:38:02.350Z,7.68
2023-05-04T00:39:00.769Z,7.60
2023-05-04T00:40:00.717Z,7.60
2023-05-04T00:41:00.838Z,7.60
2023-05-04T00:42:00.699Z,7.60
2023-05-04T00:43:00.638Z,7.60
2023-05-04T00:44:01.495Z,7.66
2023-05-04T00:45:00.671Z,7.66
2023-05-04T00:46:00.667Z,7.66
2023-05-04T00:47:01.427Z,7.66
2023-05-04T00:48:00.795Z,7.66
2023-05-04T00:49:00.686Z,7.61
2023-05-04T00:50:00.651Z,7.61
2023-05-04T00:51:01.676Z,7.61
2023-05-04T00:52:01.875Z,7.61
2023-05-04T00:53:03.892Z,7.61
2023-05-04T00:54:00.662Z,7.62
2023-05-04T00:55:00.902Z,7.62
2023-05-04T00:56:00.854Z,7.62
2023-05-04T00:57:01.583Z,7.62
2023-05-04T00:58:00.675Z,7.62
2023-05-04T00:59:00.697Z,7.48
2023-05-04T01:00:00.655Z,7.48
2023-05-04T01:01:01.214Z,7.48
2023-05-04T01:02:00.680Z,7.48
2023-05-04T01:03:00.782Z,7.48
2023-05-04T01:04:00.849Z,7.46
2023-05-04T01:05:01.564Z,7.46
2023-05-04T01:06:06.911Z,7.46
2023-05-04T01:07:10.385Z,7.46
2023-05-04T01:08:05.251Z,7.46
2023-05-04T01:09:00.535Z,7.45
2023-05-04T01:10:05.467Z,7.45
2023-05-04T01:11:06.188Z,7.45
2023-05-04T01:12:03.748Z,7.45
2023-05-04T01:13:05.834Z,7.45
2023-05-04T01:14:00.964Z,7.46
2023-05-04T01:15:02.039Z,7.46
2023-05-04T01:16:01.418Z,7.46
2023-05-04T01:17:02.648Z,7.46
2023-05-04T01:18:00.606Z,7.46
2023-05-04T01:19:00.594Z,7.38
2023-05-04T01:20:00.612Z,7.38
2023-05-04T01:21:00.562Z,7.38
2023-05-04T01:22:00.586Z,7.38
2023-05-04T01:23:01.150Z,7.38
2023-05-04T01:24:00.600Z,7.43
2023-05-04T01:25:00.791Z,7.43
2023-05-04T01:26:07.786Z,7.43
2023-05-04T01:27:10.242Z,7.43
2023-05-04T01:28:05.491Z,7.43
2023-05-04T01:29:07.993Z,7.38
2023-05-04T01:30:06.902Z,7.38
2023-05-04T01:31:01.406Z,7.38
2023-05-04T01:32:01.257Z,7.38
2023-05-04T01:33:01.095Z,7.38
2023-05-04T01:34:00.805Z,7.30
2023-05-04T01:35:00.616Z,7.30
2023-05-04T01:36:00.712Z,7.30
2023-05-04T01:37:00.724Z,7.30
2023-05-04T01:38:00.680Z,7.30
2023-05-04T01:39:01.793Z,7.19
2023-05-04T01:40:00.627Z,7.19
2023-05-04T01:41:00.631Z,7.19
2023-05-04T01:42:00.579Z,7.19
2023-05-04T01:43:00.542Z,7.19
2023-05-04T01:44:00.929Z,7.15
2023-05-04T01:45:00.555Z,7.15
2023-05-04T01:46:00.598Z,7.15
2023-05-04T01:47:00.575Z,7.15
2023-05-04T01:48:00.605Z,7.15
2023-05-04T01:49:00.589Z,7.16
2023-05-04T01:50:00.658Z,7.16
2023-05-04T01:51:00.630Z,7.16
2023-05-04T01:52:00.553Z,7.16
2023-05-04T01:53:00.662Z,7.16
2023-05-04T01:54:00.706Z,7.14
2023-05-04T01:55:00.546Z,7.14
2023-05-04T01:56:00.676Z,7.14
2023-05-04T01:57:00.555Z,7.14
2023-05-04T01:58:00.585Z,7.14
2023-05-04T01:59:00.560Z,7.04
2023-05-04T02:00:00.682Z,7.04
2023-05-04T02:01:00.674Z,7.04
2023-05-04T02:02:00.599Z,7.04
2023-05-04T02:03:00.720Z,7.04
2023-05-04T02:04:00.756Z,7.01
2023-05-04T02:05:00.618Z,7.01
2023-05-04T02:06:00.567Z,7.01
2023-05-04T02:07:00.630Z,7.01
2023-05-04T02:08:00.602Z,7.01
2023-05-04T02:09:00.617Z,7.05
2023-05-04T02:10:00.585Z,7.05
2023-05-04T02:11:00.671Z,7.05
2023-05-04T02:12:00.612Z,7.05
2023-05-04T02:13:00.536Z,7.05
2023-05-04T02:14:00.575Z,7.08
2023-05-04T02:15:00.583Z,7.08
2023-05-04T02:16:00.565Z,7.08
2023-05-04T02:17:00.533Z,7.08
2023-05-04T02:18:00.619Z,7.08
2023-05-04T02:19:00.588Z,6.94
2023-05-04T02:20:00.601Z,6.94
2023-05-04T02:21:00.592Z,6.94
2023-05-04T02:22:00.685Z,6.94
2023-05-04T02:23:00.575Z,6.94
2023-05-04T02:24:00.533Z,7.10
2023-05-04T02:25:00.753Z,7.10
2023-05-04T02:26:00.534Z,7.10
2023-05-04T02:27:00.582Z,7.10
2023-05-04T02:28:00.562Z,7.10
2023-05-04T02:29:00.782Z,7.01
2023-05-04T02:30:00.603Z,7.01
2023-05-04T02:31:00.667Z,7.01
2023-05-04T02:32:00.611Z,7.01
2023-05-04T02:33:00.665Z,7.01
2023-05-04T02:34:00.651Z,7.06
2023-05-04T02:35:00.719Z,7.06
2023-05-04T02:36:00.646Z,7.06
2023-05-04T02:37:00.643Z,7.06
2023-05-04T02:38:00.661Z,7.06
2023-05-04T02:39:00.662Z,7.07
2023-05-04T02:40:00.638Z,7.07
2023-05-04T02:41:00.666Z,7.07
2023-05-04T02:42:00.590Z,7.07
2023-05-04T02:43:00.668Z,7.07
2023-05-04T02:44:00.638Z,7.18
2023-05-04T02:45:00.674Z,7.18
2023-05-04T02:46:00.715Z,7.18
2023-05-04T02:47:00.624Z,7.18
2023-05-04T02:48:00.681Z,7.18
2023-05-04T02:49:00.925Z,7.20
2023-05-04T02:50:00.607Z,7.20
2023-05-04T02:51:00.617Z,7.20
2023-05-04T02:52:00.629Z,7.20
2023-05-04T02:53:00.776Z,7.20
2023-05-04T02:54:00.612Z,7.14
2023-05-04T02:55:00.802Z,7.14
2023-05-04T02:56:00.570Z,7.14
2023-05-04T02:57:00.706Z,7.14
2023-05-04T02:58:00.650Z,7.14
2023-05-04T02:59:00.670Z,7.08
2023-05-04T03:00:00.702Z,7.08
2023-05-04T03:01:00.633Z,7.08
2023-05-04T03:02:00.673Z,7.08
2023-05-04T03:03:00.613Z,7.08
2023-05-04T03:04:00.803Z,7.10
2023-05-04T03:05:00.693Z,7.10
2023-05-04T03:06:00.657Z,7.10
2023-05-04T03:07:00.586Z,7.10
2023-05-04T03:08:00.629Z,7.10
2023-05-04T03:09:00.768Z,7.10
2023-05-04T03:10:00.661Z,7.10
2023-05-04T03:11:00.662Z,7.10
2023-05-04T03:12:01.016Z,7.10
2023-05-04T03:13:00.892Z,7.10
2023-05-04T03:14:00.679Z,7.22
2023-05-04T03:15:00.681Z,7.22
2023-05-04T03:16:00.835Z,7.22
2023-05-04T03:17:01.133Z,7.22
2023-05-04T03:18:00.906Z,7.22
2023-05-04T03:19:00.697Z,7.18
2023-05-04T03:20:00.678Z,7.18
2023-05-04T03:21:00.664Z,7.18
2023-05-04T03:22:00.753Z,7.18
2023-05-04T03:23:00.639Z,7.18
2023-05-04T03:24:00.639Z,7.22
2023-05-04T03:25:00.833Z,7.22
2023-05-04T03:26:00.745Z,7.22
2023-05-04T03:27:00.657Z,7.22
2023-05-04T03:28:00.608Z,7.22
2023-05-04T03:29:00.664Z,7.25
2023-05-04T03:30:00.784Z,7.25
2023-05-04T03:31:00.697Z,7.25
2023-05-04T03:32:00.789Z,7.25
2023-05-04T03:33:00.641Z,7.25
2023-05-04T03:34:00.634Z,7.14
2023-05-04T03:35:02.687Z,7.14
2023-05-04T03:36:00.669Z,7.14
2023-05-04T03:37:00.605Z,7.14
2023-05-04T03:38:00.569Z,7.14
2023-05-04T03:39:00.655Z,7.22
2023-05-04T03:40:00.933Z,7.22
2023-05-04T03:41:00.578Z,7.22
2023-05-04T03:42:00.686Z,7.22
2023-05-04T03:43:00.793Z,7.22
2023-05-04T03:44:00.609Z,7.21
2023-05-04T03:45:03.753Z,7.21
2023-05-04T03:46:00.741Z,7.21
2023-05-04T03:47:00.629Z,7.21
2023-05-04T03:48:00.668Z,7.21
2023-05-04T03:49:00.608Z,7.11
2023-05-04T03:50:01.127Z,7.11
2023-05-04T03:51:00.743Z,7.11
2023-05-04T03:52:00.631Z,7.11
2023-05-04T03:53:00.649Z,7.11
2023-05-04T03:54:00.983Z,7.13
2023-05-04T03:55:00.661Z,7.13
2023-05-04T03:56:00.781Z,7.13
2023-05-04T03:57:00.734Z,7.13
2023-05-04T03:58:00.693Z,7.13
2023-05-04T03:59:00.621Z,7.14
2023-05-04T04:00:00.731Z,7.14
2023-05-04T04:01:00.665Z,7.14
2023-05-04T04:02:00.660Z,7.14
2023-05-04T04:03:00.700Z,7.14
2023-05-04T04:04:00.788Z,7.14
2023-05-04T04:05:00.652Z,7.14
2023-05-04T04:06:00.669Z,7.14
2023-05-04T04:07:00.663Z,7.14
2023-05-04T04:08:00.656Z,7.14
2023-05-04T04:09:00.669Z,7.19
2023-05-04T04:10:00.682Z,7.19
2023-05-04T04:11:00.673Z,7.19
2023-05-04T04:12:00.652Z,7.19
2023-05-04T04:13:00.711Z,7.19
2023-05-04T04:14:00.626Z,7.11
2023-05-04T04:15:00.662Z,7.11
2023-05-04T04:16:00.690Z,7.11
2023-05-04T04:17:00.645Z,7.11
2023-05-04T04:18:00.841Z,7.11
2023-05-04T04:19:00.614Z,7.05
2023-05-04T04:20:00.693Z,7.05
2023-05-04T04:21:00.647Z,7.05
2023-05-04T04:22:00.575Z,7.05
2023-05-04T04:23:00.578Z,7.05
2023-05-04T04:24:00.603Z,7.02
2023-05-04T04:25:00.786Z,7.02
2023-05-04T04:26:00.677Z,7.02
2023-05-04T04:27:00.679Z,7.02
2023-05-04T04:28:00.601Z,7.02
2023-05-04T04:29:00.638Z,7.04
2023-05-04T04:30:00.623Z,7.04
2023-05-04T04:31:00.751Z,7.04
2023-05-04T04:32:01.282Z,7.04
2023-05-04T04:33:00.614Z,7.04
2023-05-04T04:34:00.584Z,7.06
2023-05-04T04:35:00.594Z,7.06
2023-05-04T04:36:00.573Z,7.06
2023-05-04T04:37:00.629Z,7.06
2023-05-04T04:38:03.436Z,7.06
2023-05-04T04:39:00.746Z,7.07
2023-05-04T04:40:00.797Z,7.07
2023-05-04T04:41:00.627Z,7.07
2023-05-04T04:42:00.670Z,7.07
2023-05-04T04:43:00.658Z,7.07
2023-05-04T04:44:00.627Z,6.95
2023-05-04T04:45:00.613Z,6.95
2023-05-04T04:46:00.682Z,6.95
2023-05-04T04:47:00.694Z,6.95
2023-05-04T04:48:00.699Z,6.95
2023-05-04T04:49:00.650Z,6.99
2023-05-04T04:50:00.590Z,6.99
2023-05-04T04:51:00.590Z,6.99
2023-05-04T04:52:00.579Z,6.99
2023-05-04T04:53:00.584Z,6.99
2023-05-04T04:54:00.652Z,7.06
2023-05-04T04:55:00.647Z,7.06
2023-05-04T04:56:00.591Z,7.06
2023-05-04T04:57:00.619Z,7.06
2023-05-04T04:58:00.627Z,7.06
2023-05-04T04:59:00.639Z,7.13
2023-05-04T05:00:00.641Z,7.13
2023-05-04T05:01:02.301Z,7.13
2023-05-04T05:02:00.683Z,7.13
2023-05-04T05:03:01.234Z,7.13
2023-05-04T05:04:00.598Z,7.19
2023-05-04T05:05:00.731Z,7.19
2023-05-04T05:06:00.658Z,7.19
2023-05-04T05:07:00.622Z,7.19
2023-05-04T05:08:00.632Z,7.19
2023-05-04T05:09:00.644Z,7.13
2023-05-04T05:10:00.666Z,7.13
2023-05-04T05:11:00.525Z,7.13
2023-05-04T05:12:00.530Z,7.13
2023-05-04T05:13:00.682Z,7.13
2023-05-04T05:14:00.537Z,7.08
2023-05-04T05:15:00.534Z,7.08
2023-05-04T05:16:00.639Z,7.08
2023-05-04T05:17:00.683Z,7.08
2023-05-04T05:18:00.611Z,7.08
2023-05-04T05:19:00.669Z,7.13
2023-05-04T05:20:00.560Z,7.13
2023-05-04T05:21:00.528Z,7.13
2023-05-04T05:22:00.537Z,7.13
2023-05-04T05:23:00.542Z,7.13
2023-05-04T05:24:00.533Z,7.23
2023-05-04T05:25:00.526Z,7.23
2023-05-04T05:26:03.135Z,7.23
2023-05-04T05:27:00.610Z,7.23
2023-05-04T05:28:00.537Z,7.23
2023-05-04T05:29:00.564Z,7.28
2023-05-04T05:30:01.182Z,7.28
2023-05-04T05:31:00.702Z,7.28
2023-05-04T05:32:00.522Z,7.28
2023-05-04T05:33:00.598Z,7.28
2023-05-04T05:34:00.569Z,7.38
2023-05-04T05:35:00.564Z,7.38
2023-05-04T05:36:00.569Z,7.38
2023-05-04T05:37:00.548Z,7.38
2023-05-04T05:38:00.580Z,7.38
2023-05-04T05:39:00.572Z,7.52
2023-05-04T05:40:00.562Z,7.52
2023-05-04T05:41:00.576Z,7.52
2023-05-04T05:42:00.583Z,7.52
2023-05-04T05:43:00.532Z,7.52
2023-05-04T05:44:00.562Z,7.60
2023-05-04T05:45:00.534Z,7.60
2023-05-04T05:46:00.608Z,7.60
2023-05-04T05:47:00.533Z,7.60
2023-05-04T05:48:00.707Z,7.60
2023-05-04T05:49:00.598Z,7.79
2023-05-04T05:50:00.531Z,7.79
2023-05-04T05:51:00.540Z,7.79
2023-05-04T05:52:00.591Z,7.79
2023-05-04T05:53:00.579Z,7.79
2023-05-04T05:54:00.559Z,8.08
2023-05-04T05:55:02.656Z,8.08
2023-05-04T05:56:00.587Z,8.08
2023-05-04T05:57:00.537Z,8.08
2023-05-04T05:58:00.589Z,8.08
2023-05-04T05:59:00.541Z,8.53
2023-05-04T06:00:00.651Z,8.53
2023-05-04T06:01:00.599Z,8.53
2023-05-04T06:02:00.532Z,8.53
2023-05-04T06:03:00.704Z,8.53
2023-05-04T06:04:00.894Z,8.68
2023-05-04T06:05:00.702Z,8.68
2023-05-04T06:06:00.571Z,8.68
2023-05-04T06:07:00.571Z,8.68
2023-05-04T06:08:00.534Z,8.68
2023-05-04T06:09:00.591Z,8.71
2023-05-04T06:10:00.569Z,8.71
2023-05-04T06:11:00.570Z,8.71
2023-05-04T06:12:00.542Z,8.71
2023-05-04T06:13:00.523Z,8.71
2023-05-04T06:14:00.573Z,8.98
2023-05-04T06:15:00.604Z,8.98
2023-05-04T06:16:00.598Z,8.98
2023-05-04T06:17:00.531Z,8.98
2023-05-04T06:18:00.631Z,8.98
2023-05-04T06:19:00.526Z,8.87
2023-05-04T06:20:00.584Z,8.87
2023-05-04T06:21:00.712Z,8.87
2023-05-04T06:22:00.658Z,8.87
2023-05-04T06:23:00.579Z,8.87
2023-05-04T06:24:00.562Z,8.73
2023-05-04T06:25:04.396Z,8.73
2023-05-04T06:26:00.533Z,8.73
2023-05-04T06:27:00.614Z,8.73
2023-05-04T06:28:00.579Z,8.73
2023-05-04T06:29:00.601Z,8.78
2023-05-04T06:30:00.565Z,8.78
2023-05-04T06:31:00.841Z,8.78
2023-05-04T06:32:00.605Z,8.78
2023-05-04T06:33:00.610Z,8.78
2023-05-04T06:34:00.526Z,8.73
2023-05-04T06:35:00.562Z,8.73
2023-05-04T06:36:00.567Z,8.73
2023-05-04T06:37:00.562Z,8.73
2023-05-04T06:38:00.575Z,8.73
2023-05-04T06:39:00.570Z,8.97
2023-05-04T06:40:00.528Z,8.97
2023-05-04T06:41:00.525Z,8.97
2023-05-04T06:42:00.534Z,8.97
2023-05-04T06:43:00.561Z,8.97
2023-05-04T06:44:00.521Z,9.39
2023-05-04T06:45:00.576Z,9.39
2023-05-04T06:46:01.914Z,9.39
2023-05-04T06:47:00.524Z,9.39
2023-05-04T06:48:01.151Z,9.39
2023-05-04T06:49:00.613Z,9.10
2023-05-04T06:50:00.629Z,9.10
2023-05-04T06:51:02.245Z,9.10
2023-05-04T06:52:00.571Z,9.10
2023-05-04T06:53:02.894Z,9.10
2023-05-04T06:54:00.524Z,9.26
2023-05-04T06:55:00.523Z,9.26
2023-05-04T06:56:00.523Z,9.26
2023-05-04T06:57:00.664Z,9.26
2023-05-04T06:58:00.830Z,9.26
2023-05-04T06:59:00.531Z,9.33
2023-05-04T07:00:00.619Z,9.33
2023-05-04T07:01:00.567Z,9.33
2023-05-04T07:02:00.590Z,9.33
2023-05-04T07:03:00.633Z,9.33
2023-05-04T07:04:00.729Z,9.49
2023-05-04T07:05:00.578Z,9.49
2023-05-04T07:06:00.526Z,9.49
2023-05-04T07:07:00.541Z,9.49
2023-05-04T07:08:00.555Z,9.49
2023-05-04T07:09:00.683Z,9.68
2023-05-04T07:10:00.545Z,9.68
2023-05-04T07:11:00.572Z,9.68
2023-05-04T07:12:00.562Z,9.68
2023-05-04T07:13:00.656Z,9.68
2023-05-04T07:14:00.544Z,9.73
2023-05-04T07:15:00.586Z,9.73
2023-05-04T07:16:00.682Z,9.73
2023-05-04T07:17:00.526Z,9.73
2023-05-04T07:18:00.688Z,9.73
2023-05-04T07:19:00.528Z,10.06
2023-05-04T07:20:00.672Z,10.06
2023-05-04T07:21:16.189Z,10.06
2023-05-04T07:22:00.526Z,10.06
2023-05-04T07:23:00.527Z,10.06
2023-05-04T07:24:00.577Z,10.44
2023-05-04T07:25:00.594Z,10.44
2023-05-04T07:26:00.583Z,10.44
2023-05-04T07:27:00.565Z,10.44
2023-05-04T07:28:00.587Z,10.44
2023-05-04T07:29:00.572Z,10.61
2023-05-04T07:30:01.305Z,10.61
2023-05-04T07:31:01.263Z,10.61
2023-05-04T07:32:00.568Z,10.61
2023-05-04T07:33:00.604Z,10.61
2023-05-04T07:34:00.613Z,10.73
2023-05-04T07:35:00.543Z,10.73
2023-05-04T07:36:00.561Z,10.73
2023-05-04T07:37:02.859Z,10.73
2023-05-04T07:38:01.444Z,10.73
2023-05-04T07:39:00.602Z,10.96
2023-05-04T07:40:00.527Z,10.96
2023-05-04T07:41:00.568Z,10.96
2023-05-04T07:42:01.260Z,10.96
2023-05-04T07:43:00.543Z,10.96
2023-05-04T07:44:00.523Z,11.37
2023-05-04T07:45:00.575Z,11.37
2023-05-04T07:46:00.569Z,11.37
2023-05-04T07:47:00.750Z,11.37
2023-05-04T07:48:00.641Z,11.37
2023-05-04T07:49:00.527Z,11.55
2023-05-04T07:50:00.489Z,11.55
2023-05-04T07:51:00.578Z,11.55
2023-05-04T07:52:00.564Z,11.55
2023-05-04T07:53:00.533Z,11.55
2023-05-04T07:54:00.559Z,11.63
2023-05-04T07:55:00.520Z,11.63
2023-05-04T07:56:06.490Z,11.63
2023-05-04T07:57:00.919Z,11.63
2023-05-04T07:58:00.576Z,11.63
2023-05-04T07:59:00.646Z,11.64
2023-05-04T08:00:00.540Z,11.64
2023-05-04T08:01:00.626Z,11.64
2023-05-04T08:02:00.668Z,11.64
2023-05-04T08:03:00.546Z,11.64
2023-05-04T08:04:00.605Z,11.86
2023-05-04T08:05:00.529Z,11.86
2023-05-04T08:06:00.567Z,11.86
2023-05-04T08:07:00.590Z,11.86
2023-05-04T08:08:00.577Z,11.86
2023-05-04T08:09:00.522Z,11.99
2023-05-04T08:10:00.573Z,11.99
2023-05-04T08:11:15.984Z,11.99
2023-05-04T08:12:00.580Z,11.99
2023-05-04T08:13:00.589Z,11.99
2023-05-04T08:14:00.586Z,12.15
2023-05-04T08:15:00.590Z,12.15
2023-05-04T08:16:00.560Z,12.15
2023-05-04T08:17:00.561Z,12.15
2023-05-04T08:18:00.530Z,12.15
2023-05-04T08:19:00.617Z,12.40
2023-05-04T08:20:00.762Z,12.40
2023-05-04T08:21:00.521Z,12.40
2023-05-04T08:22:00.524Z,12.40
2023-05-04T08:23:00.564Z,12.40
2023-05-04T08:24:00.565Z,12.54
2023-05-04T08:25:00.813Z,12.54
2023-05-04T08:26:01.030Z,12.54
2023-05-04T08:27:07.921Z,12.54
2023-05-04T08:28:00.557Z,12.54
2023-05-04T08:29:04.726Z,12.75
2023-05-04T08:30:00.559Z,12.75
2023-05-04T08:31:00.561Z,12.75
2023-05-04T08:32:00.689Z,12.75
2023-05-04T08:33:00.688Z,12.75
2023-05-04T08:34:00.564Z,12.79
2023-05-04T08:35:00.574Z,12.79
2023-05-04T08:36:00.593Z,12.79
2023-05-04T08:37:00.540Z,12.79
2023-05-04T08:38:00.574Z,12.79
2023-05-04T08:39:00.529Z,12.91
2023-05-04T08:40:00.682Z,12.91
2023-05-04T08:41:02.183Z,12.91
2023-05-04T08:42:00.558Z,12.91
2023-05-04T08:43:01.773Z,12.91
2023-05-04T08:44:00.577Z,13.06
2023-05-04T08:45:00.607Z,13.06
2023-05-04T08:46:00.609Z,13.06
2023-05-04T08:47:01.637Z,13.06
2023-05-04T08:48:00.618Z,13.06
2023-05-04T08:49:00.599Z,13.23
2023-05-04T08:50:00.679Z,13.23
2023-05-04T08:51:01.268Z,13.23
2023-05-04T08:52:04.956Z,13.23
2023-05-04T08:53:01.633Z,13.23
2023-05-04T08:54:02.695Z,13.30
2023-05-04T08:55:00.740Z,13.30
2023-05-04T08:56:00.968Z,13.30
2023-05-04T08:57:02.936Z,13.30
2023-05-04T08:58:02.689Z,13.30
2023-05-04T08:59:00.678Z,13.55
2023-05-04T09:00:01.301Z,13.55
2023-05-04T09:01:00.702Z,13.55
2023-05-04T09:02:01.193Z,13.55
2023-05-04T09:03:01.058Z,13.55
2023-05-04T09:04:01.120Z,13.73
2023-05-04T09:05:01.107Z,13.73
2023-05-04T09:06:01.449Z,13.73
2023-05-04T09:07:00.562Z,13.73
2023-05-04T09:08:00.578Z,13.73
2023-05-04T09:09:00.594Z,13.86
2023-05-04T09:10:01.580Z,13.86
2023-05-04T09:11:00.561Z,13.86
2023-05-04T09:12:00.572Z,13.86
2023-05-04T09:13:00.823Z,13.86
2023-05-04T09:14:00.588Z,13.89
2023-05-04T09:15:00.745Z,13.89
2023-05-04T09:16:00.606Z,13.89
2023-05-04T09:17:01.107Z,13.89
2023-05-04T09:18:01.862Z,13.89
2023-05-04T09:19:00.862Z,14.07
2023-05-04T09:20:01.352Z,14.07
2023-05-04T09:21:00.573Z,14.07
2023-05-04T09:22:00.694Z,14.07
2023-05-04T09:23:01.257Z,14.07
2023-05-04T09:24:00.604Z,14.16
2023-05-04T09:25:06.122Z,14.16
2023-05-04T09:26:00.619Z,14.16
2023-05-04T09:27:10.432Z,14.16
2023-05-04T09:28:00.616Z,14.16
2023-05-04T09:29:10.417Z,14.33
2023-05-04T09:30:00.690Z,14.33
2023-05-04T09:31:00.810Z,14.33
2023-05-04T09:32:02.707Z,14.33
2023-05-04T09:33:00.599Z,14.33
2023-05-04T09:34:08.253Z,14.43
2023-05-04T09:35:00.880Z,14.43
2023-05-04T09:36:10.394Z,14.43
2023-05-04T09:37:01.159Z,14.43
2023-05-04T09:38:00.536Z,14.43
2023-05-04T09:39:11.118Z,14.63
2023-05-04T09:40:00.731Z,14.63
2023-05-04T09:41:00.580Z,14.63
2023-05-04T09:42:00.527Z,14.63
2023-05-04T09:43:00.885Z,14.63
2023-05-04T09:44:00.572Z,14.88
2023-05-04T09:45:03.331Z,14.88
2023-05-04T09:46:00.585Z,14.88
2023-05-04T09:47:00.618Z,14.88
2023-05-04T09:48:00.708Z,14.88
2023-05-04T09:49:00.537Z,14.87
2023-05-04T09:50:10.672Z,14.87
2023-05-04T09:51:01.229Z,14.87
2023-05-04T09:52:01.483Z,14.87
2023-05-04T09:53:02.553Z,14.87
2023-05-04T09:54:01.293Z,14.87
2023-05-04T09:55:02.083Z,14.87
2023-05-04T09:56:06.481Z,14.87
2023-05-04T09:57:10.435Z,14.87
2023-05-04T09:58:01.309Z,14.87
2023-05-04T09:59:01.612Z,15.02
2023-05-04T10:00:01.583Z,15.02
2023-05-04T10:01:00.724Z,15.02
2023-05-04T10:02:07.616Z,15.02
2023-05-04T10:03:02.309Z,15.02
2023-05-04T10:04:01.072Z,15.18
2023-05-04T10:05:01.716Z,15.18
2023-05-04T10:06:04.147Z,15.18
2023-05-04T10:07:02.359Z,15.18
2023-05-04T10:08:01.405Z,15.18
2023-05-04T10:09:00.977Z,15.27
2023-05-04T10:10:01.175Z,15.27
2023-05-04T10:11:00.663Z,15.27
2023-05-04T10:12:01.303Z,15.27
2023-05-04T10:13:00.735Z,15.27
2023-05-04T10:14:00.675Z,15.42
2023-05-04T10:15:00.918Z,15.42
2023-05-04T10:16:01.727Z,15.42
2023-05-04T10:17:03.998Z,15.42
2023-05-04T10:18:10.386Z,15.42
2023-05-04T10:19:10.377Z,15.77
2023-05-04T10:20:03.751Z,15.77
2023-05-04T10:21:01.524Z,15.77
2023-05-04T10:22:00.648Z,15.77
2023-05-04T10:23:10.420Z,15.77
2023-05-04T10:24:09.758Z,15.87
2023-05-04T10:25:01.551Z,15.87
2023-05-04T10:26:00.597Z,15.87
2023-05-04T10:27:06.486Z,15.87
2023-05-04T10:28:07.903Z,15.87
2023-05-04T10:29:10.383Z,15.98
2023-05-04T10:30:00.934Z,15.98
2023-05-04T10:31:00.601Z,15.98
2023-05-04T10:32:01.074Z,15.98
2023-05-04T10:33:00.761Z,15.98
2023-05-04T10:34:01.243Z,15.96
2023-05-04T10:35:08.412Z,15.96
2023-05-04T10:36:00.858Z,15.96
2023-05-04T10:37:01.305Z,15.96
2023-05-04T10:38:00.616Z,15.96
2023-05-04T10:39:00.644Z,16.00
2023-05-04T10:40:00.791Z,16.00
2023-05-04T10:41:00.968Z,16.00
2023-05-04T10:42:00.641Z,16.00
2023-05-04T10:43:00.623Z,16.00
2023-05-04T10:44:02.129Z,16.21
2023-05-04T10:45:00.814Z,16.21
2023-05-04T10:46:00.667Z,16.21
2023-05-04T10:47:02.022Z,16.21
2023-05-04T10:48:00.667Z,16.21
2023-05-04T10:49:00.624Z,16.35
2023-05-04T10:50:00.766Z,16.35
2023-05-04T10:51:00.747Z,16.35
2023-05-04T10:52:03.816Z,16.35
2023-05-04T10:53:00.643Z,16.35
2023-05-04T10:54:00.678Z,16.24
2023-05-04T10:55:02.098Z,16.24
2023-05-04T10:56:00.650Z,16.24
2023-05-04T10:57:02.357Z,16.24
2023-05-04T10:58:00.642Z,16.24
2023-05-04T10:59:07.770Z,16.41
2023-05-04T11:00:00.814Z,16.41
2023-05-04T11:01:09.803Z,16.41
2023-05-04T11:02:01.172Z,16.41
2023-05-04T11:03:02.351Z,16.41
2023-05-04T11:04:00.727Z,16.52
2023-05-04T11:05:00.828Z,16.52
2023-05-04T11:06:00.668Z,16.52
2023-05-04T11:07:00.599Z,16.52
2023-05-04T11:08:10.418Z,16.52
2023-05-04T11:09:01.550Z,16.72
2023-05-04T11:10:00.930Z,16.72
2023-05-04T11:11:02.036Z,16.72
2023-05-04T11:12:00.616Z,16.72
2023-05-04T11:13:04.713Z,16.72
2023-05-04T11:14:00.637Z,16.80
2023-05-04T11:15:04.869Z,16.80
2023-05-04T11:16:00.766Z,16.80
2023-05-04T11:17:19.530Z,16.80
2023-05-04T11:18:00.683Z,16.80
2023-05-04T11:19:07.805Z,16.70
2023-05-04T11:20:00.608Z,16.70
2023-05-04T11:21:00.643Z,16.70
2023-05-04T11:22:00.714Z,16.70
2023-05-04T11:23:00.594Z,16.70
2023-05-04T11:24:00.485Z,16.85
2023-05-04T11:25:00.603Z,16.85
2023-05-04T11:26:04.361Z,16.85
2023-05-04T11:27:00.521Z,16.85
2023-05-04T11:28:00.609Z,16.85
2023-05-04T11:29:10.198Z,17.03
2023-05-04T11:30:01.678Z,17.03
2023-05-04T11:31:01.022Z,17.03
2023-05-04T11:32:00.707Z,17.03
2023-05-04T11:33:01.261Z,17.03
2023-05-04T11:34:00.548Z,17.08
2023-05-04T11:35:01.305Z,17.08
2023-05-04T11:36:00.507Z,17.08
2023-05-04T11:37:02.353Z,17.08
2023-05-04T11:38:00.536Z,17.08
2023-05-04T11:39:00.793Z,17.14
2023-05-04T11:40:00.558Z,17.14
2023-05-04T11:41:00.522Z,17.14
2023-05-04T11:42:04.134Z,17.14
2023-05-04T11:43:01.010Z,17.14
2023-05-04T11:44:01.586Z,17.44
2023-05-04T11:45:00.951Z,17.44
2023-05-04T11:46:00.704Z,17.44
2023-05-04T11:47:00.590Z,17.44
2023-05-04T11:48:01.036Z,17.44
2023-05-04T11:49:01.933Z,17.60
2023-05-04T11:50:00.942Z,17.60
2023-05-04T11:51:01.939Z,17.60
2023-05-04T11:52:08.450Z,17.60
2023-05-04T11:53:04.455Z,17.60
2023-05-04T11:54:00.535Z,17.62
2023-05-04T11:55:00.594Z,17.62
2023-05-04T11:56:00.937Z,17.62
2023-05-04T11:57:00.484Z,17.62
2023-05-04T11:58:00.544Z,17.62
2023-05-04T11:59:06.420Z,17.54
2023-05-04T12:00:00.625Z,17.54
2023-05-04T12:01:00.566Z,17.54
2023-05-04T12:02:00.597Z,17.54
2023-05-04T12:03:00.708Z,17.54
2023-05-04T12:04:01.051Z,17.67
2023-05-04T12:05:01.029Z,17.67
2023-05-04T12:06:01.269Z,17.67
2023-05-04T12:07:05.060Z,17.67
2023-05-04T12:08:00.767Z,17.67
2023-05-04T12:09:01.092Z,17.96
2023-05-04T12:10:00.524Z,17.96
2023-05-04T12:11:10.380Z,17.96
2023-05-04T12:12:00.530Z,17.96
2023-05-04T12:13:00.899Z,17.96
2023-05-04T12:14:02.977Z,17.96
2023-05-04T12:15:00.532Z,17.96
2023-05-04T12:16:10.410Z,17.96
2023-05-04T12:17:00.559Z,17.96
2023-05-04T12:18:02.817Z,17.96
2023-05-04T12:19:01.599Z,17.96
2023-05-04T12:20:00.532Z,17.96
2023-05-04T12:21:08.567Z,17.96
2023-05-04T12:22:00.574Z,17.96
2023-05-04T12:23:07.726Z,17.96
2023-05-04T12:24:00.634Z,18.10
2023-05-04T12:25:00.625Z,18.10
2023-05-04T12:26:00.556Z,18.10
2023-05-04T12:27:01.702Z,18.10
2023-05-04T12:28:01.049Z,18.10
2023-05-04T12:29:00.518Z,18.25
2023-05-04T12:30:00.528Z,18.25
2023-05-04T12:31:00.844Z,18.25
2023-05-04T12:32:00.564Z,18.25
2023-05-04T12:33:00.568Z,18.25
2023-05-04T12:34:00.524Z,18.42
2023-05-04T12:35:00.557Z,18.42
2023-05-04T12:36:01.296Z,18.42
2023-05-04T12:37:00.524Z,18.42
2023-05-04T12:38:00.521Z,18.42
2023-05-04T12:39:00.601Z,18.50
2023-05-04T12:40:00.576Z,18.50
2023-05-04T12:41:00.852Z,18.50
2023-05-04T12:42:00.520Z,18.50
2023-05-04T12:43:00.585Z,18.50
2023-05-04T12:44:00.515Z,18.56
2023-05-04T12:45:00.652Z,18.56
2023-05-04T12:46:00.844Z,18.56
2023-05-04T12:47:00.551Z,18.56
2023-05-04T12:48:00.682Z,18.56
2023-05-04T12:49:00.594Z,18.81
2023-05-04T12:50:00.521Z,18.81
2023-05-04T12:51:00.650Z,18.81
2023-05-04T12:52:00.518Z,18.81
2023-05-04T12:53:00.574Z,18.81
2023-05-04T12:54:00.510Z,18.63
2023-05-04T12:55:00.537Z,18.63
2023-05-04T12:56:00.768Z,18.63
2023-05-04T12:57:00.525Z,18.63
2023-05-04T12:58:00.490Z,18.63
2023-05-04T12:59:00.524Z,18.73
2023-05-04T13:00:00.577Z,18.73
2023-05-04T13:01:00.579Z,18.73
2023-05-04T13:02:00.560Z,18.73
2023-05-04T13:03:00.852Z,18.73
2023-05-04T13:04:00.515Z,19.03
2023-05-04T13:05:00.562Z,19.03
2023-05-04T13:06:00.536Z,19.03